Tulsa, OK

5:25 PM CDT on August 30, 2014 (GMT -0500)
Sheridan Valley - South Tulsa | Change Station
CLOSE
Current Station
Personal Weather Station
Location: Tulsa, OK
Elevation: 774 ft
Nearby Weather Stations

Elev 774 ft 36.05 °N, 95.90 °W | Updated 23 seconds ago

Clear
Clear
90.3 °F
Feels Like 96 °F
N
0.0
Wind Variable Wind from East
Gusts 2.0 mph

Today
High -- | Low -- °F
--% Chance of Precip.
Yesterday
High -- | Low -- °F
Precip. -- in
6:53 AM 7:53 PM
Waxing Crescent, 25% visible
Pressure 29.86 in
Visibility 10.0 miles
Clouds Clear
Heat Index 96 °F
Dew Point 70 °F
Humidity 51%
Rainfall 0.09 in
Snow Depth Not available.
UV 4 out of 12
Pollen 9.70 out of 12
Ozone Good
Flu Activity Not available.
METAR KRVS 302153Z 13008KT 10SM CLR 34/19 A2985 RMK AO2 SLP111 T03390194

More Conditions Fewer Conditions

Pressure 29.86 in
Visibility 10.0 miles
Clouds Clear
Heat Index 96 °F
Dew Point 70 °F
Humidity 51%
Rainfall 0.09 in
Snow Depth Not available.
UV 4 out of 12
Pollen 9.70 out of 12
Ozone Good
Flu Activity Not available.
METAR KRVS 302153Z 13008KT 10SM CLR 34/19 A2985 RMK AO2 SLP111 T03390194

More Conditions Fewer Conditions

10-Day Weather Forecast

Almanac

Astronomy

Aug. 30, 2014 Rise Set
Actual Time 6:53 AM CDT 7:53 PM CDT
Civil Twilight 6:27 AM CDT 8:20 PM CDT
Nautical Twilight 5:56 AM CDT 8:51 PM CDT
Astronomical Twilight 5:23 AM CDT 9:23 PM CDT
Moon 11:32 AM CDT 10:39 PM CDT
Length of Visible Light 13h 52m
Length of Day
13h 00m
Tomorrow will be 2m 11s shorter.
Waxing Crescent, 25% of the Moon is Illuminated
Today
Waxing Crescent
Sep 2
First Quarter
Sep 8
Full
Sep 15
Last Quarter
Sep 24
New

Today's Extremes

State Highs State Lows

Community

WunderPhotos

Upload Photos

1,748,657 photos uploaded!

WunderBlogs® & News

Nearby

Air Quality

  Air Quality AQ Index Pollutant
Yesterday Moderate
OZONE
Current Good
OZONE
Saturday Moderate
OZONE
Saturday Good
PM2.5
Sunday Moderate
OZONE
Sunday Good
PM2.5
Monday Moderate
OZONE
Monday Good
PM2.5
Tuesday Moderate
OZONE
Tuesday Good
PM2.5
Wednesday Moderate
OZONE
Wednesday Good
PM2.5

Snow Depth

Station Depth Elevation
No new snow has been reported.

Earthquake Activity

City Distance Mag. Time & Date
Guthrie, Oklahoma 86 miles 3.2 10:39 AM CDT
2014-08-29
Perry, Oklahoma 92 miles 3.0 4:52 AM CDT
2014-08-29
Perry, Oklahoma 89 miles 3.1 10:01 PM CDT
2014-08-28
Minimum magnitude displayed is 2.5.

Coastal Water Temperatures

Place Temperature
No Stations Reporting

Nearby Weather Stations